sensor_id;sensor_type;location;lat;lon;timestamp;temperature;humidity
44271;DHT22;29963;44.594;11.368;2023-01-23T00:01:24;6.00;99.90
44271;DHT22;29963;44.594;11.368;2023-01-23T00:03:52;6.00;99.90
44271;DHT22;29963;44.594;11.368;2023-01-23T00:06:19;5.80;99.90
44271;DHT22;29963;44.594;11.368;2023-01-23T00:08:45;5.70;99.90
44271;DHT22;29963;44.594;11.368;2023-01-23T00:11:15;5.70;99.90
44271;DHT22;29963;44.594;11.368;2023-01-23T00:13:41;5.70;99.90
44271;DHT22;29963;44.594;11.368;2023-01-23T00:16:09;5.70;99.90
44271;DHT22;29963;44.594;11.368;2023-01-23T00:18:34;5.70;99.90
44271;DHT22;29963;44.594;11.368;2023-01-23T00:21:08;5.60;99.90
44271;DHT22;29963;44.594;11.368;2023-01-23T00:23:34;5.50;99.90
44271;DHT22;29963;44.594;11.368;2023-01-23T00:26:04;5.50;99.90
44271;DHT22;29963;44.594;11.368;2023-01-23T00:28:30;5.50;99.90
44271;DHT22;29963;44.594;11.368;2023-01-23T00:31:10;5.50;99.90
44271;DHT22;29963;44.594;11.368;2023-01-23T00:33:41;5.40;99.90
44271;DHT22;29963;44.594;11.368;2023-01-23T00:36:07;5.40;99.90
44271;DHT22;29963;44.594;11.368;2023-01-23T00:38:33;5.30;99.90
44271;DHT22;29963;44.594;11.368;2023-01-23T00:40:59;5.40;99.90
44271;DHT22;29963;44.594;11.368;2023-01-23T00:43:25;5.40;99.90
44271;DHT22;29963;44.594;11.368;2023-01-23T00:45:51;5.40;99.90
44271;DHT22;29963;44.594;11.368;2023-01-23T00:48:16;5.40;99.90
44271;DHT22;29963;44.594;11.368;2023-01-23T00:50:43;5.30;99.90
44271;DHT22;29963;44.594;11.368;2023-01-23T00:53:08;5.30;99.90
44271;DHT22;29963;44.594;11.368;2023-01-23T00:55:34;5.30;99.90
44271;DHT22;29963;44.594;11.368;2023-01-23T00:58:00;5.20;99.90
44271;DHT22;29963;44.594;11.368;2023-01-23T01:00:26;5.20;99.90
44271;DHT22;29963;44.594;11.368;2023-01-23T01:02:51;5.20;99.90
44271;DHT22;29963;44.594;11.368;2023-01-23T01:05:17;5.30;99.90
44271;DHT22;29963;44.594;11.368;2023-01-23T01:07:43;5.30;99.90
44271;DHT22;29963;44.594;11.368;2023-01-23T01:10:10;5.30;99.90
44271;DHT22;29963;44.594;11.368;2023-01-23T01:12:36;5.30;99.90
44271;DHT22;29963;44.594;11.368;2023-01-23T01:15:02;5.40;99.90
44271;DHT22;29963;44.594;11.368;2023-01-23T01:17:28;5.40;99.90
44271;DHT22;29963;44.594;11.368;2023-01-23T01:19:54;5.20;99.90
44271;DHT22;29963;44.594;11.368;2023-01-23T01:22:20;5.30;99.90
44271;DHT22;29963;44.594;11.368;2023-01-23T01:24:45;5.20;99.90
44271;DHT22;29963;44.594;11.368;2023-01-23T01:27:11;5.20;99.90
44271;DHT22;29963;44.594;11.368;2023-01-23T01:29:37;5.20;99.90
44271;DHT22;29963;44.594;11.368;2023-01-23T01:32:03;5.30;99.90
44271;DHT22;29963;44.594;11.368;2023-01-23T01:34:29;5.30;99.90
44271;DHT22;29963;44.594;11.368;2023-01-23T01:36:55;5.30;99.90
44271;DHT22;29963;44.594;11.368;2023-01-23T01:39:21;5.30;99.90
44271;DHT22;29963;44.594;11.368;2023-01-23T01:41:47;5.30;99.90
44271;DHT22;29963;44.594;11.368;2023-01-23T01:44:22;5.30;99.90
44271;DHT22;29963;44.594;11.368;2023-01-23T01:46:49;5.30;99.90
44271;DHT22;29963;44.594;11.368;2023-01-23T01:49:22;5.30;99.90
44271;DHT22;29963;44.594;11.368;2023-01-23T01:52:03;5.30;99.90
44271;DHT22;29963;44.594;11.368;2023-01-23T01:57:07;5.20;99.90
44271;DHT22;29963;44.594;11.368;2023-01-23T02:00:25;5.20;99.90
44271;DHT22;29963;44.594;11.368;2023-01-23T02:02:32;5.20;99.90
44271;DHT22;29963;44.594;11.368;2023-01-23T02:05:11;5.10;99.90
44271;DHT22;29963;44.594;11.368;2023-01-23T02:07:55;5.10;99.90
44271;DHT22;29963;44.594;11.368;2023-01-23T02:10:22;5.10;99.90
44271;DHT22;29963;44.594;11.368;2023-01-23T02:12:50;5.10;99.90
44271;DHT22;29963;44.594;11.368;2023-01-23T02:15:17;5.10;99.90
44271;DHT22;29963;44.594;11.368;2023-01-23T02:17:44;5.10;99.90
44271;DHT22;29963;44.594;11.368;2023-01-23T02:20:26;5.00;99.90
44271;DHT22;29963;44.594;11.368;2023-01-23T02:28:11;5.00;99.90
44271;DHT22;29963;44.594;11.368;2023-01-23T02:30:38;5.00;99.90
44271;DHT22;29963;44.594;11.368;2023-01-23T02:33:10;5.00;99.90
44271;DHT22;29963;44.594;11.368;2023-01-23T02:35:38;5.10;99.90
44271;DHT22;29963;44.594;11.368;2023-01-23T02:38:05;5.10;99.90
44271;DHT22;29963;44.594;11.368;2023-01-23T02:40:33;5.10;99.90
44271;DHT22;29963;44.594;11.368;2023-01-23T02:43:02;5.10;99.90
44271;DHT22;29963;44.594;11.368;2023-01-23T02:45:29;5.10;99.90
44271;DHT22;29963;44.594;11.368;2023-01-23T02:47:55;5.20;99.90
44271;DHT22;29963;44.594;11.368;2023-01-23T02:50:22;5.10;99.90
44271;DHT22;29963;44.594;11.368;2023-01-23T02:52:48;5.10;99.90
44271;DHT22;29963;44.594;11.368;2023-01-23T02:55:16;5.10;99.90
44271;DHT22;29963;44.594;11.368;2023-01-23T02:57:42;5.10;99.90
44271;DHT22;29963;44.594;11.368;2023-01-23T03:00:10;5.00;99.90
44271;DHT22;29963;44.594;11.368;2023-01-23T03:02:46;5.00;99.90
44271;DHT22;29963;44.594;11.368;2023-01-23T03:05:12;5.10;99.90
44271;DHT22;29963;44.594;11.368;2023-01-23T03:07:38;5.20;99.90
44271;DHT22;29963;44.594;11.368;2023-01-23T03:10:05;5.10;99.90
44271;DHT22;29963;44.594;11.368;2023-01-23T03:12:32;5.10;99.90
44271;DHT22;29963;44.594;11.368;2023-01-23T03:14:57;5.10;99.90
44271;DHT22;29963;44.594;11.368;2023-01-23T03:17:24;5.00;99.90
44271;DHT22;29963;44.594;11.368;2023-01-23T03:19:49;5.10;99.90
44271;DHT22;29963;44.594;11.368;2023-01-23T03:22:15;5.10;99.90
44271;DHT22;29963;44.594;11.368;2023-01-23T03:24:41;5.20;99.90
44271;DHT22;29963;44.594;11.368;2023-01-23T03:27:07;5.20;99.90
44271;DHT22;29963;44.594;11.368;2023-01-23T03:29:33;5.20;99.90
44271;DHT22;29963;44.594;11.368;2023-01-23T03:32:17;5.20;99.90
44271;DHT22;29963;44.594;11.368;2023-01-23T03:34:45;5.20;99.90
44271;DHT22;29963;44.594;11.368;2023-01-23T03:37:11;5.20;99.90
44271;DHT22;29963;44.594;11.368;2023-01-23T03:39:37;5.20;99.90
44271;DHT22;29963;44.594;11.368;2023-01-23T03:42:22;5.20;99.90
44271;DHT22;29963;44.594;11.368;2023-01-23T03:44:48;5.30;99.90
44271;DHT22;29963;44.594;11.368;2023-01-23T03:47:15;5.30;99.90
44271;DHT22;29963;44.594;11.368;2023-01-23T03:49:41;5.40;99.90
44271;DHT22;29963;44.594;11.368;2023-01-23T03:52:06;5.30;99.90
44271;DHT22;29963;44.594;11.368;2023-01-23T03:54:32;5.40;99.90
44271;DHT22;29963;44.594;11.368;2023-01-23T03:56:58;5.40;99.90
44271;DHT22;29963;44.594;11.368;2023-01-23T03:59:24;5.40;99.90
44271;DHT22;29963;44.594;11.368;2023-01-23T04:01:49;5.30;99.90
44271;DHT22;29963;44.594;11.368;2023-01-23T04:04:15;5.20;99.90
44271;DHT22;29963;44.594;11.368;2023-01-23T04:06:40;5.20;99.90
44271;DHT22;29963;44.594;11.368;2023-01-23T04:09:06;5.10;99.90
44271;DHT22;29963;44.594;11.368;2023-01-23T04:11:32;5.10;99.90
44271;DHT22;29963;44.594;11.368;2023-01-23T04:13:57;5.00;99.90
44271;DHT22;29963;44.594;11.368;2023-01-23T04:16:23;5.00;99.90
44271;DHT22;29963;44.594;11.368;2023-01-23T04:18:50;4.90;99.90
44271;DHT22;29963;44.594;11.368;2023-01-23T04:21:16;4.80;99.90
44271;DHT22;29963;44.594;11.368;2023-01-23T04:23:44;4.80;99.90
44271;DHT22;29963;44.594;11.368;2023-01-23T04:26:11;4.70;99.90
44271;DHT22;29963;44.594;11.368;2023-01-23T04:28:37;4.80;99.90
44271;DHT22;29963;44.594;11.368;2023-01-23T04:31:03;4.80;99.90
44271;DHT22;29963;44.594;11.368;2023-01-23T04:33:32;4.80;99.90
44271;DHT22;29963;44.594;11.368;2023-01-23T04:36:00;4.90;99.90
44271;DHT22;29963;44.594;11.368;2023-01-23T04:38:27;4.80;99.90
44271;DHT22;29963;44.594;11.368;2023-01-23T04:40:53;4.80;99.90
44271;DHT22;29963;44.594;11.368;2023-01-23T04:43:19;4.70;99.90
44271;DHT22;29963;44.594;11.368;2023-01-23T04:45:45;4.70;99.90
44271;DHT22;29963;44.594;11.368;2023-01-23T04:48:12;4.70;99.90
44271;DHT22;29963;44.594;11.368;2023-01-23T04:50:38;4.70;99.90
44271;DHT22;29963;44.594;11.368;2023-01-23T04:53:07;4.70;99.90
44271;DHT22;29963;44.594;11.368;2023-01-23T04:55:33;4.60;99.90
44271;DHT22;29963;44.594;11.368;2023-01-23T04:58:00;4.60;99.90
44271;DHT22;29963;44.594;11.368;2023-01-23T05:00:25;4.50;99.90
44271;DHT22;29963;44.594;11.368;2023-01-23T05:02:53;4.60;99.90
44271;DHT22;29963;44.594;11.368;2023-01-23T05:05:19;4.50;99.90
44271;DHT22;29963;44.594;11.368;2023-01-23T05:07:46;4.40;99.90
44271;DHT22;29963;44.594;11.368;2023-01-23T05:10:13;4.40;99.90
44271;DHT22;29963;44.594;11.368;2023-01-23T05:12:39;4.40;99.90
44271;DHT22;29963;44.594;11.368;2023-01-23T05:15:05;4.30;99.90
44271;DHT22;29963;44.594;11.368;2023-01-23T05:17:31;4.30;99.90
44271;DHT22;29963;44.594;11.368;2023-01-23T05:19:57;4.20;99.90
44271;DHT22;29963;44.594;11.368;2023-01-23T05:22:23;4.20;99.90
44271;DHT22;29963;44.594;11.368;2023-01-23T05:24:48;4.20;99.90
44271;DHT22;29963;44.594;11.368;2023-01-23T05:27:14;4.10;99.90
44271;DHT22;29963;44.594;11.368;2023-01-23T05:29:40;3.90;99.90
44271;DHT22;29963;44.594;11.368;2023-01-23T05:32:05;3.80;99.90
44271;DHT22;29963;44.594;11.368;2023-01-23T05:34:31;3.80;99.90
44271;DHT22;29963;44.594;11.368;2023-01-23T05:36:57;3.80;99.90
44271;DHT22;29963;44.594;11.368;2023-01-23T05:39:22;3.70;99.90
44271;DHT22;29963;44.594;11.368;2023-01-23T05:41:48;3.70;99.90
44271;DHT22;29963;44.594;11.368;2023-01-23T05:44:14;3.70;99.90
44271;DHT22;29963;44.594;11.368;2023-01-23T05:46:40;3.60;99.90
44271;DHT22;29963;44.594;11.368;2023-01-23T05:49:05;3.60;99.90
44271;DHT22;29963;44.594;11.368;2023-01-23T05:51:31;3.50;99.90
44271;DHT22;29963;44.594;11.368;2023-01-23T05:53:59;3.50;99.90
44271;DHT22;29963;44.594;11.368;2023-01-23T05:56:25;3.40;99.90
44271;DHT22;29963;44.594;11.368;2023-01-23T05:58:51;3.30;99.90
44271;DHT22;29963;44.594;11.368;2023-01-23T06:01:17;3.30;99.90
44271;DHT22;29963;44.594;11.368;2023-01-23T06:03:43;3.30;99.90
44271;DHT22;29963;44.594;11.368;2023-01-23T06:06:08;3.20;99.90
44271;DHT22;29963;44.594;11.368;2023-01-23T06:08:34;3.30;99.90
44271;DHT22;29963;44.594;11.368;2023-01-23T06:11:00;3.30;99.90
44271;DHT22;29963;44.594;11.368;2023-01-23T06:13:26;3.30;99.90
44271;DHT22;29963;44.594;11.368;2023-01-23T06:15:52;3.30;99.90
44271;DHT22;29963;44.594;11.368;2023-01-23T06:18:18;3.20;99.90
44271;DHT22;29963;44.594;11.368;2023-01-23T06:20:44;3.20;99.90
44271;DHT22;29963;44.594;11.368;2023-01-23T06:23:10;3.30;99.90
44271;DHT22;29963;44.594;11.368;2023-01-23T06:25:36;3.40;99.90
44271;DHT22;29963;44.594;11.368;2023-01-23T06:28:02;3.40;99.90
44271;DHT22;29963;44.594;11.368;2023-01-23T06:30:28;3.50;99.90
44271;DHT22;29963;44.594;11.368;2023-01-23T06:32:54;3.50;99.90
44271;DHT22;29963;44.594;11.368;2023-01-23T06:35:23;3.50;99.90
44271;DHT22;29963;44.594;11.368;2023-01-23T06:37:49;3.50;99.90
44271;DHT22;29963;44.594;11.368;2023-01-23T06:40:15;3.50;99.90
44271;DHT22;29963;44.594;11.368;2023-01-23T06:42:43;3.60;99.90
44271;DHT22;29963;44.594;11.368;2023-01-23T06:45:10;3.40;99.90
44271;DHT22;29963;44.594;11.368;2023-01-23T06:47:36;3.50;99.90
44271;DHT22;29963;44.594;11.368;2023-01-23T06:50:02;3.40;99.90
44271;DHT22;29963;44.594;11.368;2023-01-23T06:52:28;3.40;99.90
44271;DHT22;29963;44.594;11.368;2023-01-23T06:54:55;3.40;99.90
44271;DHT22;29963;44.594;11.368;2023-01-23T06:57:21;3.30;99.90
44271;DHT22;29963;44.594;11.368;2023-01-23T06:59:46;3.30;99.90
44271;DHT22;29963;44.594;11.368;2023-01-23T07:02:12;3.30;99.90
44271;DHT22;29963;44.594;11.368;2023-01-23T07:04:38;3.20;99.90
44271;DHT22;29963;44.594;11.368;2023-01-23T07:07:04;3.30;99.90
44271;DHT22;29963;44.594;11.368;2023-01-23T07:09:30;3.20;99.90
44271;DHT22;29963;44.594;11.368;2023-01-23T07:11:55;3.20;99.90
44271;DHT22;29963;44.594;11.368;2023-01-23T07:14:21;3.20;99.90
44271;DHT22;29963;44.594;11.368;2023-01-23T07:16:47;3.30;99.90
44271;DHT22;29963;44.594;11.368;2023-01-23T07:19:12;3.30;99.90
44271;DHT22;29963;44.594;11.368;2023-01-23T07:21:38;3.30;99.90
44271;DHT22;29963;44.594;11.368;2023-01-23T07:24:04;3.30;99.90
44271;DHT22;29963;44.594;11.368;2023-01-23T07:26:30;3.40;99.90
44271;DHT22;29963;44.594;11.368;2023-01-23T07:28:55;3.30;99.90
44271;DHT22;29963;44.594;11.368;2023-01-23T07:31:21;3.30;99.90
44271;DHT22;29963;44.594;11.368;2023-01-23T07:33:47;3.30;99.90
44271;DHT22;29963;44.594;11.368;2023-01-23T07:36:13;3.30;99.90
44271;DHT22;29963;44.594;11.368;2023-01-23T07:38:39;3.30;99.90
44271;DHT22;29963;44.594;11.368;2023-01-23T07:41:05;3.30;99.90
44271;DHT22;29963;44.594;11.368;2023-01-23T07:43:31;3.40;99.90
44271;DHT22;29963;44.594;11.368;2023-01-23T07:46:01;3.40;99.90
44271;DHT22;29963;44.594;11.368;2023-01-23T07:48:27;3.40;99.90
44271;DHT22;29963;44.594;11.368;2023-01-23T07:50:54;3.50;99.90
44271;DHT22;29963;44.594;11.368;2023-01-23T07:53:19;3.50;99.90
44271;DHT22;29963;44.594;11.368;2023-01-23T07:55:45;3.50;99.90
44271;DHT22;29963;44.594;11.368;2023-01-23T07:58:11;3.50;99.90
44271;DHT22;29963;44.594;11.368;2023-01-23T08:00:37;3.50;99.90
44271;DHT22;29963;44.594;11.368;2023-01-23T08:03:03;3.60;99.90
44271;DHT22;29963;44.594;11.368;2023-01-23T08:05:32;3.60;99.90
44271;DHT22;29963;44.594;11.368;2023-01-23T08:07:57;3.60;99.90
44271;DHT22;29963;44.594;11.368;2023-01-23T08:10:23;3.70;99.90
44271;DHT22;29963;44.594;11.368;2023-01-23T08:12:48;3.70;99.90
44271;DHT22;29963;44.594;11.368;2023-01-23T08:15:14;3.70;99.90
44271;DHT22;29963;44.594;11.368;2023-01-23T08:17:40;3.80;99.90
44271;DHT22;29963;44.594;11.368;2023-01-23T08:20:06;3.80;99.90
44271;DHT22;29963;44.594;11.368;2023-01-23T08:22:32;3.80;99.90
44271;DHT22;29963;44.594;11.368;2023-01-23T08:24:58;3.70;99.90
44271;DHT22;29963;44.594;11.368;2023-01-23T08:27:23;3.70;99.90
44271;DHT22;29963;44.594;11.368;2023-01-23T08:29:49;3.80;99.90
44271;DHT22;29963;44.594;11.368;2023-01-23T08:32:14;3.80;99.90
44271;DHT22;29963;44.594;11.368;2023-01-23T08:34:40;3.80;99.90
44271;DHT22;29963;44.594;11.368;2023-01-23T08:37:06;3.90;99.90
44271;DHT22;29963;44.594;11.368;2023-01-23T08:39:31;3.90;99.90
44271;DHT22;29963;44.594;11.368;2023-01-23T08:41:57;3.90;99.90
44271;DHT22;29963;44.594;11.368;2023-01-23T08:44:23;3.90;99.90
44271;DHT22;29963;44.594;11.368;2023-01-23T08:46:49;4.00;99.90
44271;DHT22;29963;44.594;11.368;2023-01-23T08:49:14;4.00;99.90
44271;DHT22;29963;44.594;11.368;2023-01-23T08:51:43;4.10;99.90
44271;DHT22;29963;44.594;11.368;2023-01-23T08:54:12;4.10;99.90
44271;DHT22;29963;44.594;11.368;2023-01-23T08:56:38;4.20;99.90
44271;DHT22;29963;44.594;11.368;2023-01-23T08:59:05;4.30;99.90
44271;DHT22;29963;44.594;11.368;2023-01-23T09:01:31;4.40;99.90
44271;DHT22;29963;44.594;11.368;2023-01-23T09:03:56;4.40;99.90
44271;DHT22;29963;44.594;11.368;2023-01-23T09:06:22;4.50;99.90
44271;DHT22;29963;44.594;11.368;2023-01-23T09:08:48;4.60;99.90
44271;DHT22;29963;44.594;11.368;2023-01-23T09:11:14;4.70;99.90
44271;DHT22;29963;44.594;11.368;2023-01-23T09:13:40;4.80;99.90
44271;DHT22;29963;44.594;11.368;2023-01-23T09:16:06;4.90;99.90
44271;DHT22;29963;44.594;11.368;2023-01-23T09:18:35;4.90;99.90
44271;DHT22;29963;44.594;11.368;2023-01-23T09:21:08;4.90;99.90
44271;DHT22;29963;44.594;11.368;2023-01-23T09:23:34;5.00;99.90
44271;DHT22;29963;44.594;11.368;2023-01-23T09:26:08;5.00;99.90
44271;DHT22;29963;44.594;11.368;2023-01-23T09:28:35;5.10;99.90
44271;DHT22;29963;44.594;11.368;2023-01-23T09:31:05;5.10;99.90
44271;DHT22;29963;44.594;11.368;2023-01-23T09:33:34;5.10;99.90
44271;DHT22;29963;44.594;11.368;2023-01-23T09:36:00;5.10;99.90
44271;DHT22;29963;44.594;11.368;2023-01-23T09:38:26;5.10;99.90
44271;DHT22;29963;44.594;11.368;2023-01-23T09:40:58;5.10;99.90
44271;DHT22;29963;44.594;11.368;2023-01-23T09:45:58;5.10;99.90
44271;DHT22;29963;44.594;11.368;2023-01-23T09:48:46;5.10;99.90
44271;DHT22;29963;44.594;11.368;2023-01-23T09:51:25;5.20;99.90
44271;DHT22;29963;44.594;11.368;2023-01-23T09:54:03;5.20;99.90
44271;DHT22;29963;44.594;11.368;2023-01-23T09:56:39;5.20;99.90
44271;DHT22;29963;44.594;11.368;2023-01-23T10:01:46;5.20;99.90
44271;DHT22;29963;44.594;11.368;2023-01-23T10:04:12;5.20;99.90
44271;DHT22;29963;44.594;11.368;2023-01-23T10:09:50;5.10;99.90
44271;DHT22;29963;44.594;11.368;2023-01-23T10:23:59;4.60;99.90
44271;DHT22;29963;44.594;11.368;2023-01-23T10:26:30;4.50;99.90
44271;DHT22;29963;44.594;11.368;2023-01-23T10:29:19;4.50;99.90
44271;DHT22;29963;44.594;11.368;2023-01-23T10:31:55;4.50;99.90
44271;DHT22;29963;44.594;11.368;2023-01-23T10:34:27;4.50;99.90
44271;DHT22;29963;44.594;11.368;2023-01-23T10:37:17;4.60;99.90
44271;DHT22;29963;44.594;11.368;2023-01-23T10:40:00;4.60;99.90
44271;DHT22;29963;44.594;11.368;2023-01-23T10:42:27;4.60;99.90
44271;DHT22;29963;44.594;11.368;2023-01-23T10:44:53;4.60;99.90
44271;DHT22;29963;44.594;11.368;2023-01-23T10:48:02;4.60;99.90
44271;DHT22;29963;44.594;11.368;2023-01-23T10:50:10;4.70;99.90
44271;DHT22;29963;44.594;11.368;2023-01-23T10:53:06;4.70;99.90
44271;DHT22;29963;44.594;11.368;2023-01-23T10:55:32;4.70;99.90
44271;DHT22;29963;44.594;11.368;2023-01-23T10:57:59;4.80;99.90
44271;DHT22;29963;44.594;11.368;2023-01-23T11:00:44;4.80;99.90
44271;DHT22;29963;44.594;11.368;2023-01-23T11:03:23;4.90;99.90
44271;DHT22;29963;44.594;11.368;2023-01-23T11:05:53;4.90;99.90
44271;DHT22;29963;44.594;11.368;2023-01-23T11:08:30;4.90;99.90
44271;DHT22;29963;44.594;11.368;2023-01-23T11:13:44;4.90;99.90
44271;DHT22;29963;44.594;11.368;2023-01-23T11:16:24;4.80;99.90
44271;DHT22;29963;44.594;11.368;2023-01-23T11:19:14;4.80;99.90
44271;DHT22;29963;44.594;11.368;2023-01-23T11:21:52;4.70;99.90
44271;DHT22;29963;44.594;11.368;2023-01-23T11:27:17;4.80;99.90
44271;DHT22;29963;44.594;11.368;2023-01-23T11:32:20;4.80;99.90
44271;DHT22;29963;44.594;11.368;2023-01-23T11:34:50;4.80;99.90
44271;DHT22;29963;44.594;11.368;2023-01-23T11:37:19;4.80;99.90
44271;DHT22;29963;44.594;11.368;2023-01-23T11:42:29;4.80;99.90
44271;DHT22;29963;44.594;11.368;2023-01-23T11:44:58;4.80;99.90
44271;DHT22;29963;44.594;11.368;2023-01-23T11:47:33;4.80;99.90
44271;DHT22;29963;44.594;11.368;2023-01-23T12:01:30;5.20;99.90
44271;DHT22;29963;44.594;11.368;2023-01-23T12:09:15;6.20;99.90
44271;DHT22;29963;44.594;11.368;2023-01-23T12:17:05;6.60;99.90
44271;DHT22;29963;44.594;11.368;2023-01-23T12:27:45;7.00;99.90
44271;DHT22;29963;44.594;11.368;2023-01-23T12:35:46;7.20;99.90
44271;DHT22;29963;44.594;11.368;2023-01-23T12:43:42;7.40;99.90
44271;DHT22;29963;44.594;11.368;2023-01-23T12:46:19;7.40;99.90
44271;DHT22;29963;44.594;11.368;2023-01-23T12:48:52;7.50;99.90
44271;DHT22;29963;44.594;11.368;2023-01-23T12:51:26;7.50;99.90
44271;DHT22;29963;44.594;11.368;2023-01-23T12:53:57;7.50;99.90
44271;DHT22;29963;44.594;11.368;2023-01-23T12:56:28;7.60;99.90
44271;DHT22;29963;44.594;11.368;2023-01-23T13:04:17;7.70;99.90
44271;DHT22;29963;44.594;11.368;2023-01-23T13:14:47;7.90;99.90
44271;DHT22;29963;44.594;11.368;2023-01-23T13:23:21;8.00;99.90
44271;DHT22;29963;44.594;11.368;2023-01-23T13:25:48;8.00;99.90
44271;DHT22;29963;44.594;11.368;2023-01-23T13:28:33;8.00;99.90
44271;DHT22;29963;44.594;11.368;2023-01-23T13:31:03;8.00;99.90
44271;DHT22;29963;44.594;11.368;2023-01-23T13:36:10;8.00;99.90
44271;DHT22;29963;44.594;11.368;2023-01-23T13:38:36;8.00;99.90
44271;DHT22;29963;44.594;11.368;2023-01-23T13:43:53;8.10;99.90
44271;DHT22;29963;44.594;11.368;2023-01-23T13:51:47;8.20;99.90
44271;DHT22;29963;44.594;11.368;2023-01-23T13:54:23;8.30;99.90
44271;DHT22;29963;44.594;11.368;2023-01-23T13:57:08;8.40;99.90
44271;DHT22;29963;44.594;11.368;2023-01-23T13:59:38;8.70;99.90
44271;DHT22;29963;44.594;11.368;2023-01-23T14:05:07;9.30;99.90
44271;DHT22;29963;44.594;11.368;2023-01-23T14:07:39;9.50;99.90
44271;DHT22;29963;44.594;11.368;2023-01-23T14:10:17;9.80;99.90
44271;DHT22;29963;44.594;11.368;2023-01-23T14:12:44;10.30;99.90
44271;DHT22;29963;44.594;11.368;2023-01-23T14:15:24;10.70;99.90
44271;DHT22;29963;44.594;11.368;2023-01-23T14:18:15;11.10;99.90
44271;DHT22;29963;44.594;11.368;2023-01-23T14:20:43;11.20;99.90
44271;DHT22;29963;44.594;11.368;2023-01-23T14:23:24;11.40;99.90
44271;DHT22;29963;44.594;11.368;2023-01-23T14:25:51;11.90;99.90
44271;DHT22;29963;44.594;11.368;2023-01-23T14:28:17;12.60;99.90
44271;DHT22;29963;44.594;11.368;2023-01-23T14:30:59;13.20;99.90
44271;DHT22;29963;44.594;11.368;2023-01-23T14:33:26;13.60;99.90
44271;DHT22;29963;44.594;11.368;2023-01-23T14:35:52;14.00;99.90
44271;DHT22;29963;44.594;11.368;2023-01-23T14:38:29;14.20;99.90
44271;DHT22;29963;44.594;11.368;2023-01-23T14:40:56;14.20;99.90
44271;DHT22;29963;44.594;11.368;2023-01-23T14:43:24;14.30;99.90
44271;DHT22;29963;44.594;11.368;2023-01-23T14:48:41;14.40;99.90
44271;DHT22;29963;44.594;11.368;2023-01-23T14:51:20;14.40;99.90
44271;DHT22;29963;44.594;11.368;2023-01-23T14:54:33;14.30;99.90
44271;DHT22;29963;44.594;11.368;2023-01-23T14:56:39;14.30;99.90
44271;DHT22;29963;44.594;11.368;2023-01-23T14:59:16;14.30;99.90
44271;DHT22;29963;44.594;11.368;2023-01-23T15:01:52;14.30;99.90
44271;DHT22;29963;44.594;11.368;2023-01-23T15:04:20;14.50;99.90
44271;DHT22;29963;44.594;11.368;2023-01-23T15:06:55;14.90;99.90
44271;DHT22;29963;44.594;11.368;2023-01-23T15:09:32;15.30;99.90
44271;DHT22;29963;44.594;11.368;2023-01-23T15:12:05;15.50;99.90
44271;DHT22;29963;44.594;11.368;2023-01-23T15:14:39;15.50;99.90
44271;DHT22;29963;44.594;11.368;2023-01-23T15:17:11;15.40;99.90
44271;DHT22;29963;44.594;11.368;2023-01-23T15:19:38;15.30;99.90
44271;DHT22;29963;44.594;11.368;2023-01-23T15:22:15;15.40;99.90
44271;DHT22;29963;44.594;11.368;2023-01-23T15:24:42;15.50;99.90
44271;DHT22;29963;44.594;11.368;2023-01-23T15:27:43;15.40;99.90
44271;DHT22;29963;44.594;11.368;2023-01-23T15:30:40;15.50;99.90
44271;DHT22;29963;44.594;11.368;2023-01-23T15:33:24;15.60;99.90
44271;DHT22;29963;44.594;11.368;2023-01-23T15:35:50;15.30;99.90
44271;DHT22;29963;44.594;11.368;2023-01-23T15:38:16;15.10;99.90
44271;DHT22;29963;44.594;11.368;2023-01-23T15:40:42;15.10;99.90
44271;DHT22;29963;44.594;11.368;2023-01-23T15:43:11;15.00;99.90
44271;DHT22;29963;44.594;11.368;2023-01-23T15:45:37;14.90;99.90
44271;DHT22;29963;44.594;11.368;2023-01-23T15:48:03;14.60;99.90
44271;DHT22;29963;44.594;11.368;2023-01-23T15:50:29;14.10;99.90
44271;DHT22;29963;44.594;11.368;2023-01-23T15:52:55;13.20;99.90
44271;DHT22;29963;44.594;11.368;2023-01-23T15:55:23;12.40;99.90
44271;DHT22;29963;44.594;11.368;2023-01-23T15:57:52;11.80;99.90
44271;DHT22;29963;44.594;11.368;2023-01-23T16:00:21;11.30;99.90
44271;DHT22;29963;44.594;11.368;2023-01-23T16:02:49;10.80;99.90
44271;DHT22;29963;44.594;11.368;2023-01-23T16:05:19;10.50;99.90
44271;DHT22;29963;44.594;11.368;2023-01-23T16:07:45;10.30;99.90
44271;DHT22;29963;44.594;11.368;2023-01-23T16:10:18;10.10;99.90
44271;DHT22;29963;44.594;11.368;2023-01-23T16:12:44;9.90;99.90
44271;DHT22;29963;44.594;11.368;2023-01-23T16:15:18;9.80;99.90
44271;DHT22;29963;44.594;11.368;2023-01-23T16:17:44;9.70;99.90
44271;DHT22;29963;44.594;11.368;2023-01-23T16:20:21;9.60;99.90
44271;DHT22;29963;44.594;11.368;2023-01-23T16:22:50;9.50;99.90
44271;DHT22;29963;44.594;11.368;2023-01-23T16:25:22;9.40;99.90
44271;DHT22;29963;44.594;11.368;2023-01-23T16:27:49;9.30;99.90
44271;DHT22;29963;44.594;11.368;2023-01-23T16:30:17;9.30;99.90
44271;DHT22;29963;44.594;11.368;2023-01-23T16:32:43;9.20;99.90
44271;DHT22;29963;44.594;11.368;2023-01-23T16:35:11;9.10;99.90
44271;DHT22;29963;44.594;11.368;2023-01-23T16:37:42;9.10;99.90
44271;DHT22;29963;44.594;11.368;2023-01-23T16:40:19;9.00;99.90
44271;DHT22;29963;44.594;11.368;2023-01-23T16:42:47;8.90;99.90
44271;DHT22;29963;44.594;11.368;2023-01-23T16:45:15;8.80;99.90
44271;DHT22;29963;44.594;11.368;2023-01-23T16:47:41;8.80;99.90
44271;DHT22;29963;44.594;11.368;2023-01-23T16:50:10;8.70;99.90
44271;DHT22;29963;44.594;11.368;2023-01-23T16:52:36;8.70;99.90
44271;DHT22;29963;44.594;11.368;2023-01-23T16:55:04;8.60;99.90
44271;DHT22;29963;44.594;11.368;2023-01-23T16:57:35;8.60;99.90
44271;DHT22;29963;44.594;11.368;2023-01-23T17:00:00;8.60;99.90
44271;DHT22;29963;44.594;11.368;2023-01-23T17:02:28;8.50;99.90
44271;DHT22;29963;44.594;11.368;2023-01-23T17:04:55;8.50;99.90
44271;DHT22;29963;44.594;11.368;2023-01-23T17:07:21;8.50;99.90
44271;DHT22;29963;44.594;11.368;2023-01-23T17:09:47;8.50;99.90
44271;DHT22;29963;44.594;11.368;2023-01-23T17:12:33;8.60;99.90
44271;DHT22;29963;44.594;11.368;2023-01-23T17:15:00;8.50;99.90
44271;DHT22;29963;44.594;11.368;2023-01-23T17:17:31;8.50;99.90
44271;DHT22;29963;44.594;11.368;2023-01-23T17:19:58;8.50;99.90
44271;DHT22;29963;44.594;11.368;2023-01-23T17:22:27;8.50;99.90
44271;DHT22;29963;44.594;11.368;2023-01-23T17:24:56;8.50;99.90
44271;DHT22;29963;44.594;11.368;2023-01-23T17:27:22;8.50;99.90
44271;DHT22;29963;44.594;11.368;2023-01-23T17:29:48;8.50;99.90
44271;DHT22;29963;44.594;11.368;2023-01-23T17:32:32;8.50;99.90
44271;DHT22;29963;44.594;11.368;2023-01-23T17:35:01;8.50;99.90
44271;DHT22;29963;44.594;11.368;2023-01-23T17:37:27;8.50;99.90